Terminal Aerodrome Forecast
Issued by NWS Bismarck, ND

Home | Current Version | Previous Version | Text Only | Print | Product List | Glossary Off
Versions: 1 2 3 4 5 6 7 8 9 10 11 12 13 14 15 16 17 18 19 20

000
FTUS43 KBIS 220532
TAFISN
TAF
KISN 220532Z 2206/2306 28007KT 6SM BR OVC006
     FM220900 27007KT 4SM BR OVC007
     FM221700 27010KT P6SM OVC015
     FM230000 26006KT P6SM OVC008=

USA.gov is the U.S. government's official web portal to all federal, state and local government web resources and services.